X  Close Metar Aviation Weather Data     LGRX Patras Araxos Agamemnon Airport
Temperature
36°C Temperature
20°C Dewpoint
39% Humidity



Wind
0 MPH
0 KM/H
0 M/S
0 KTS



Calm
N
Current Conditions

Clear Clear
Pressure 1008.81 (hPa) - 29.79 (inHg)
Visibility 6 (mile) - 9.7 (km)
Airport
Airport-code LGRX

Location: Patras Araxos Agamemnon Airport
Distance: 41 (mi)

Metar:
LGRX 160920Z 00000KT CAVOK 36/20 Q1009

Time: 16-07-2024 12:20 EEST